sensor_id;sensor_type;location;lat;lon;timestamp;pressure;altitude;pressure_sealevel;temperature;humidity
59106;BME280;44891;50.204;8.132;2022-12-07T00:01:17;98291.44;;;2.42;100.00
59106;BME280;44891;50.204;8.132;2022-12-07T00:05:19;98279.81;;;2.53;100.00
59106;BME280;44891;50.204;8.132;2022-12-07T00:09:21;98274.88;;;2.58;100.00
59106;BME280;44891;50.204;8.132;2022-12-07T00:13:23;98266.91;;;2.59;100.00
59106;BME280;44891;50.204;8.132;2022-12-07T00:17:26;98273.75;;;2.45;100.00
59106;BME280;44891;50.204;8.132;2022-12-07T00:21:29;98269.00;;;2.49;100.00
59106;BME280;44891;50.204;8.132;2022-12-07T00:25:31;98267.38;;;2.48;100.00
59106;BME280;44891;50.204;8.132;2022-12-07T00:29:33;98260.84;;;2.52;100.00
59106;BME280;44891;50.204;8.132;2022-12-07T00:33:36;98268.19;;;2.49;100.00
59106;BME280;44891;50.204;8.132;2022-12-07T00:37:38;98259.19;;;2.44;100.00
59106;BME280;44891;50.204;8.132;2022-12-07T00:41:40;98255.72;;;2.37;100.00
59106;BME280;44891;50.204;8.132;2022-12-07T00:45:42;98252.56;;;2.42;100.00
59106;BME280;44891;50.204;8.132;2022-12-07T00:49:45;98232.94;;;2.54;100.00
59106;BME280;44891;50.204;8.132;2022-12-07T00:53:47;98247.38;;;2.63;100.00
59106;BME280;44891;50.204;8.132;2022-12-07T00:57:50;98246.16;;;2.59;100.00
59106;BME280;44891;50.204;8.132;2022-12-07T01:01:51;98240.34;;;2.57;100.00
59106;BME280;44891;50.204;8.132;2022-12-07T01:05:55;98233.41;;;2.58;100.00
59106;BME280;44891;50.204;8.132;2022-12-07T01:09:57;98230.22;;;2.62;100.00
59106;BME280;44891;50.204;8.132;2022-12-07T01:13:59;98234.25;;;2.65;100.00
59106;BME280;44891;50.204;8.132;2022-12-07T01:18:02;98218.75;;;2.71;100.00
59106;BME280;44891;50.204;8.132;2022-12-07T01:22:05;98227.13;;;2.73;100.00
59106;BME280;44891;50.204;8.132;2022-12-07T01:26:08;98230.72;;;2.72;100.00
59106;BME280;44891;50.204;8.132;2022-12-07T01:30:11;98227.94;;;2.74;100.00
59106;BME280;44891;50.204;8.132;2022-12-07T01:34:13;98231.88;;;2.70;100.00
59106;BME280;44891;50.204;8.132;2022-12-07T01:38:16;98234.47;;;2.70;100.00
59106;BME280;44891;50.204;8.132;2022-12-07T01:42:18;98227.13;;;2.73;100.00
59106;BME280;44891;50.204;8.132;2022-12-07T01:46:21;98225.94;;;2.76;100.00
59106;BME280;44891;50.204;8.132;2022-12-07T01:50:24;98228.59;;;2.83;100.00
59106;BME280;44891;50.204;8.132;2022-12-07T01:54:28;98219.25;;;2.88;100.00
59106;BME280;44891;50.204;8.132;2022-12-07T01:58:30;98209.63;;;2.82;100.00
59106;BME280;44891;50.204;8.132;2022-12-07T02:02:33;98216.25;;;2.85;100.00
59106;BME280;44891;50.204;8.132;2022-12-07T02:06:35;98213.66;;;2.85;100.00
59106;BME280;44891;50.204;8.132;2022-12-07T02:10:39;98202.91;;;2.88;100.00
59106;BME280;44891;50.204;8.132;2022-12-07T02:14:41;98200.06;;;2.83;100.00
59106;BME280;44891;50.204;8.132;2022-12-07T02:18:45;98205.09;;;2.84;100.00
59106;BME280;44891;50.204;8.132;2022-12-07T02:27:31;98200.50;;;2.86;100.00
59106;BME280;44891;50.204;8.132;2022-12-07T02:31:40;98189.88;;;2.81;100.00
59106;BME280;44891;50.204;8.132;2022-12-07T02:35:46;98197.31;;;2.84;100.00
59106;BME280;44891;50.204;8.132;2022-12-07T02:39:50;98201.66;;;2.84;100.00
59106;BME280;44891;50.204;8.132;2022-12-07T02:43:55;98195.72;;;2.90;100.00
59106;BME280;44891;50.204;8.132;2022-12-07T02:47:59;98192.16;;;2.91;100.00
59106;BME280;44891;50.204;8.132;2022-12-07T02:52:02;98195.50;;;2.85;100.00
59106;BME280;44891;50.204;8.132;2022-12-07T02:56:06;98201.31;;;2.87;100.00
59106;BME280;44891;50.204;8.132;2022-12-07T03:00:10;98188.34;;;2.87;100.00
59106;BME280;44891;50.204;8.132;2022-12-07T03:04:17;98191.34;;;2.90;100.00
59106;BME280;44891;50.204;8.132;2022-12-07T03:08:25;98184.59;;;2.96;100.00
59106;BME280;44891;50.204;8.132;2022-12-07T03:12:32;98178.81;;;2.94;100.00
59106;BME280;44891;50.204;8.132;2022-12-07T03:16:37;98182.63;;;2.98;100.00
59106;BME280;44891;50.204;8.132;2022-12-07T03:20:43;98185.06;;;3.06;100.00
59106;BME280;44891;50.204;8.132;2022-12-07T03:24:46;98174.09;;;3.04;100.00
59106;BME280;44891;50.204;8.132;2022-12-07T03:28:51;98180.44;;;3.02;100.00
59106;BME280;44891;50.204;8.132;2022-12-07T03:32:55;98174.66;;;2.99;100.00
59106;BME280;44891;50.204;8.132;2022-12-07T03:37:02;98177.81;;;2.95;100.00
59106;BME280;44891;50.204;8.132;2022-12-07T03:41:06;98170.63;;;2.97;100.00
59106;BME280;44891;50.204;8.132;2022-12-07T03:45:10;98174.88;;;3.05;100.00
59106;BME280;44891;50.204;8.132;2022-12-07T03:49:14;98171.91;;;3.08;100.00
59106;BME280;44891;50.204;8.132;2022-12-07T03:53:22;98163.91;;;3.09;100.00
59106;BME280;44891;50.204;8.132;2022-12-07T03:57:26;98162.56;;;3.13;100.00
59106;BME280;44891;50.204;8.132;2022-12-07T04:01:29;98167.53;;;3.15;100.00
59106;BME280;44891;50.204;8.132;2022-12-07T04:05:33;98165.16;;;3.13;100.00
59106;BME280;44891;50.204;8.132;2022-12-07T04:09:36;98167.16;;;3.11;100.00
59106;BME280;44891;50.204;8.132;2022-12-07T04:13:38;98162.34;;;3.15;100.00
59106;BME280;44891;50.204;8.132;2022-12-07T04:17:53;98156.97;;;3.16;100.00
59106;BME280;44891;50.204;8.132;2022-12-07T04:21:57;98166.38;;;3.17;100.00
59106;BME280;44891;50.204;8.132;2022-12-07T04:26:00;98162.38;;;3.21;100.00
59106;BME280;44891;50.204;8.132;2022-12-07T04:30:02;98162.81;;;3.25;100.00
59106;BME280;44891;50.204;8.132;2022-12-07T04:34:05;98161.41;;;3.22;100.00
59106;BME280;44891;50.204;8.132;2022-12-07T04:38:07;98159.44;;;3.24;100.00
59106;BME280;44891;50.204;8.132;2022-12-07T04:42:10;98162.19;;;3.23;100.00
59106;BME280;44891;50.204;8.132;2022-12-07T04:46:13;98162.81;;;3.25;100.00
59106;BME280;44891;50.204;8.132;2022-12-07T04:50:15;98173.19;;;3.25;100.00
59106;BME280;44891;50.204;8.132;2022-12-07T04:54:17;98161.59;;;3.21;100.00
59106;BME280;44891;50.204;8.132;2022-12-07T04:58:20;98160.00;;;3.20;100.00
59106;BME280;44891;50.204;8.132;2022-12-07T05:02:22;98159.78;;;3.21;100.00
59106;BME280;44891;50.204;8.132;2022-12-07T05:06:24;98152.63;;;3.23;100.00
59106;BME280;44891;50.204;8.132;2022-12-07T05:10:26;98167.22;;;3.24;100.00
59106;BME280;44891;50.204;8.132;2022-12-07T05:14:29;98156.63;;;3.26;100.00
59106;BME280;44891;50.204;8.132;2022-12-07T05:18:31;98162.19;;;3.23;100.00
59106;BME280;44891;50.204;8.132;2022-12-07T05:22:33;98157.44;;;3.26;100.00
59106;BME280;44891;50.204;8.132;2022-12-07T05:26:35;98153.59;;;3.22;100.00
59106;BME280;44891;50.204;8.132;2022-12-07T05:30:38;98161.63;;;3.27;100.00
59106;BME280;44891;50.204;8.132;2022-12-07T05:34:40;98165.22;;;3.26;100.00
59106;BME280;44891;50.204;8.132;2022-12-07T05:38:42;98163.44;;;3.34;100.00
59106;BME280;44891;50.204;8.132;2022-12-07T05:42:44;98161.47;;;3.36;100.00
59106;BME280;44891;50.204;8.132;2022-12-07T05:46:47;98158.25;;;3.34;100.00
59106;BME280;44891;50.204;8.132;2022-12-07T05:50:49;98166.44;;;3.31;100.00
59106;BME280;44891;50.204;8.132;2022-12-07T05:54:51;98165.81;;;3.28;100.00
59106;BME280;44891;50.204;8.132;2022-12-07T05:58:53;98160.44;;;3.30;100.00
59106;BME280;44891;50.204;8.132;2022-12-07T06:03:14;98162.06;;;3.31;100.00
59106;BME280;44891;50.204;8.132;2022-12-07T06:07:16;98162.22;;;3.30;100.00
59106;BME280;44891;50.204;8.132;2022-12-07T06:11:18;98154.03;;;3.26;100.00
59106;BME280;44891;50.204;8.132;2022-12-07T06:15:38;98160.78;;;3.20;100.00
59106;BME280;44891;50.204;8.132;2022-12-07T06:19:41;98160.78;;;3.20;100.00
59106;BME280;44891;50.204;8.132;2022-12-07T06:23:43;98159.00;;;3.21;100.00
59106;BME280;44891;50.204;8.132;2022-12-07T06:27:44;98157.59;;;3.18;100.00
59106;BME280;44891;50.204;8.132;2022-12-07T06:31:46;98167.75;;;3.13;100.00
59106;BME280;44891;50.204;8.132;2022-12-07T06:35:50;98160.97;;;3.12;100.00
59106;BME280;44891;50.204;8.132;2022-12-07T06:39:51;98162.78;;;3.18;100.00
59106;BME280;44891;50.204;8.132;2022-12-07T06:43:53;98160.75;;;3.14;100.00
59106;BME280;44891;50.204;8.132;2022-12-07T06:47:55;98167.53;;;3.15;100.00
59106;BME280;44891;50.204;8.132;2022-12-07T06:51:58;98171.34;;;3.12;100.00
59106;BME280;44891;50.204;8.132;2022-12-07T06:56:00;98178.09;;;3.07;100.00
59106;BME280;44891;50.204;8.132;2022-12-07T07:00:02;98174.88;;;3.05;100.00
59106;BME280;44891;50.204;8.132;2022-12-07T07:04:04;98173.88;;;3.06;100.00
59106;BME280;44891;50.204;8.132;2022-12-07T07:08:08;98174.84;;;2.98;100.00
59106;BME280;44891;50.204;8.132;2022-12-07T07:12:10;98182.84;;;3.03;100.00
59106;BME280;44891;50.204;8.132;2022-12-07T07:16:12;98191.00;;;3.00;100.00
59106;BME280;44891;50.204;8.132;2022-12-07T07:20:14;98188.66;;;3.05;100.00
59106;BME280;44891;50.204;8.132;2022-12-07T07:24:17;98197.84;;;3.08;100.00
59106;BME280;44891;50.204;8.132;2022-12-07T07:28:19;98195.84;;;3.10;100.00
59106;BME280;44891;50.204;8.132;2022-12-07T07:32:21;98199.13;;;3.18;100.00
59106;BME280;44891;50.204;8.132;2022-12-07T07:36:23;98202.31;;;3.20;100.00
59106;BME280;44891;50.204;8.132;2022-12-07T07:40:26;98206.22;;;3.10;100.00
59106;BME280;44891;50.204;8.132;2022-12-07T07:44:29;98200.88;;;3.11;100.00
59106;BME280;44891;50.204;8.132;2022-12-07T07:48:31;98202.72;;;3.17;100.00
59106;BME280;44891;50.204;8.132;2022-12-07T07:52:33;98205.50;;;3.22;100.00
59106;BME280;44891;50.204;8.132;2022-12-07T07:56:36;98208.50;;;3.19;100.00
59106;BME280;44891;50.204;8.132;2022-12-07T08:00:38;98204.31;;;3.18;100.00
59106;BME280;44891;50.204;8.132;2022-12-07T08:04:40;98192.94;;;3.19;100.00
59106;BME280;44891;50.204;8.132;2022-12-07T08:08:41;98200.75;;;3.26;100.00
59106;BME280;44891;50.204;8.132;2022-12-07T08:12:45;98200.00;;;3.32;100.00
59106;BME280;44891;50.204;8.132;2022-12-07T08:17:04;98203.78;;;3.36;100.00
59106;BME280;44891;50.204;8.132;2022-12-07T08:21:06;98199.78;;;3.34;100.00
59106;BME280;44891;50.204;8.132;2022-12-07T08:25:08;98195.22;;;3.42;100.00
59106;BME280;44891;50.204;8.132;2022-12-07T08:29:12;98208.69;;;3.52;100.00
59106;BME280;44891;50.204;8.132;2022-12-07T08:33:14;98208.09;;;3.57;100.00
59106;BME280;44891;50.204;8.132;2022-12-07T08:37:15;98207.47;;;3.55;100.00
59106;BME280;44891;50.204;8.132;2022-12-07T08:41:17;98205.50;;;3.57;100.00
59106;BME280;44891;50.204;8.132;2022-12-07T08:45:21;98213.63;;;3.47;100.00
59106;BME280;44891;50.204;8.132;2022-12-07T08:49:23;98214.22;;;3.49;100.00
59106;BME280;44891;50.204;8.132;2022-12-07T08:53:27;98217.03;;;3.48;100.00
59106;BME280;44891;50.204;8.132;2022-12-07T08:57:29;98218.25;;;3.52;100.00
59106;BME280;44891;50.204;8.132;2022-12-07T09:01:33;98215.06;;;3.50;100.00
59106;BME280;44891;50.204;8.132;2022-12-07T09:05:35;98210.31;;;3.60;100.00
59106;BME280;44891;50.204;8.132;2022-12-07T09:09:37;98218.59;;;3.84;100.00
59106;BME280;44891;50.204;8.132;2022-12-07T09:13:39;98218.41;;;3.85;100.00
59106;BME280;44891;50.204;8.132;2022-12-07T09:17:42;98224.16;;;3.80;100.00
59106;BME280;44891;50.204;8.132;2022-12-07T09:21:45;98229.59;;;3.86;100.00
59106;BME280;44891;50.204;8.132;2022-12-07T09:25:46;98220.16;;;3.78;100.00
59106;BME280;44891;50.204;8.132;2022-12-07T09:29:48;98233.53;;;3.75;100.00
59106;BME280;44891;50.204;8.132;2022-12-07T09:33:54;98230.75;;;3.76;100.00
59106;BME280;44891;50.204;8.132;2022-12-07T09:37:56;98235.75;;;3.78;100.00
59106;BME280;44891;50.204;8.132;2022-12-07T09:41:58;98238.16;;;3.79;100.00
59106;BME280;44891;50.204;8.132;2022-12-07T09:46:01;98232.19;;;3.86;100.00
59106;BME280;44891;50.204;8.132;2022-12-07T09:50:05;98225.78;;;3.88;100.00
59106;BME280;44891;50.204;8.132;2022-12-07T09:54:09;98226.84;;;4.00;100.00
59106;BME280;44891;50.204;8.132;2022-12-07T09:58:16;98210.47;;;4.13;100.00
59106;BME280;44891;50.204;8.132;2022-12-07T10:02:23;98204.09;;;4.35;100.00
59106;BME280;44891;50.204;8.132;2022-12-07T10:06:27;98205.13;;;4.61;100.00
59106;BME280;44891;50.204;8.132;2022-12-07T10:10:30;98198.69;;;5.16;96.16
59106;BME280;44891;50.204;8.132;2022-12-07T10:14:33;98197.44;;;5.32;91.60
59106;BME280;44891;50.204;8.132;2022-12-07T10:18:36;98192.06;;;5.21;91.59
59106;BME280;44891;50.204;8.132;2022-12-07T10:22:41;98190.88;;;5.16;91.36
59106;BME280;44891;50.204;8.132;2022-12-07T10:26:55;98193.91;;;5.00;92.61
59106;BME280;44891;50.204;8.132;2022-12-07T10:30:57;98187.94;;;4.73;91.43
59106;BME280;44891;50.204;8.132;2022-12-07T10:35:20;98141.53;;;4.30;92.41
59106;BME280;44891;50.204;8.132;2022-12-07T10:39:24;98172.53;;;4.45;95.38
59106;BME280;44891;50.204;8.132;2022-12-07T10:43:26;98174.72;;;4.48;94.97
59106;BME280;44891;50.204;8.132;2022-12-07T10:47:31;98179.91;;;4.42;95.07
59106;BME280;44891;50.204;8.132;2022-12-07T10:51:36;98171.16;;;4.56;95.32
59106;BME280;44891;50.204;8.132;2022-12-07T10:55:48;98170.31;;;4.35;96.39
59106;BME280;44891;50.204;8.132;2022-12-07T11:00:00;98129.13;;;4.19;96.66
59106;BME280;44891;50.204;8.132;2022-12-07T11:04:07;98156.13;;;4.38;95.36
59106;BME280;44891;50.204;8.132;2022-12-07T11:08:15;98154.72;;;4.35;97.16
59106;BME280;44891;50.204;8.132;2022-12-07T11:12:25;98157.13;;;4.50;97.91
59106;BME280;44891;50.204;8.132;2022-12-07T11:16:34;98157.09;;;4.97;97.41
59106;BME280;44891;50.204;8.132;2022-12-07T11:20:41;98155.28;;;5.04;93.16
59106;BME280;44891;50.204;8.132;2022-12-07T11:24:46;98147.94;;;5.39;92.46
59106;BME280;44891;50.204;8.132;2022-12-07T11:29:08;98136.56;;;5.78;86.24
59106;BME280;44891;50.204;8.132;2022-12-07T11:33:15;98141.84;;;6.03;85.88
59106;BME280;44891;50.204;8.132;2022-12-07T11:37:20;98141.69;;;5.53;87.08
59106;BME280;44891;50.204;8.132;2022-12-07T11:41:25;98134.28;;;4.92;90.38
59106;BME280;44891;50.204;8.132;2022-12-07T11:45:30;98136.50;;;4.75;91.44
59106;BME280;44891;50.204;8.132;2022-12-07T11:49:37;98137.09;;;4.84;91.63
59106;BME280;44891;50.204;8.132;2022-12-07T11:53:43;98125.28;;;4.75;92.31
59106;BME280;44891;50.204;8.132;2022-12-07T11:57:48;98117.47;;;4.75;90.17
59106;BME280;44891;50.204;8.132;2022-12-07T12:01:55;98111.31;;;4.62;91.75
59106;BME280;44891;50.204;8.132;2022-12-07T12:05:58;98105.50;;;4.60;93.57
59106;BME280;44891;50.204;8.132;2022-12-07T12:10:02;98103.09;;;4.66;90.95
59106;BME280;44891;50.204;8.132;2022-12-07T12:18:37;98092.56;;;5.18;91.30
59106;BME280;44891;50.204;8.132;2022-12-07T12:22:42;98095.25;;;4.92;91.15
59106;BME280;44891;50.204;8.132;2022-12-07T12:26:48;98089.06;;;4.80;92.44
59106;BME280;44891;50.204;8.132;2022-12-07T12:31:05;98086.88;;;4.83;92.71
59106;BME280;44891;50.204;8.132;2022-12-07T12:35:27;98086.09;;;5.28;91.24
59106;BME280;44891;50.204;8.132;2022-12-07T12:39:29;98082.25;;;5.37;89.17
59106;BME280;44891;50.204;8.132;2022-12-07T12:43:47;98033.88;;;5.23;88.13
59106;BME280;44891;50.204;8.132;2022-12-07T12:47:58;98060.56;;;5.50;86.69
59106;BME280;44891;50.204;8.132;2022-12-07T12:52:02;98066.91;;;5.60;86.60
59106;BME280;44891;50.204;8.132;2022-12-07T12:56:27;98066.84;;;5.35;87.13
59106;BME280;44891;50.204;8.132;2022-12-07T13:00:35;98062.16;;;5.06;86.35
59106;BME280;44891;50.204;8.132;2022-12-07T13:04:48;98064.03;;;4.85;87.45
59106;BME280;44891;50.204;8.132;2022-12-07T13:08:52;98054.69;;;4.71;87.41
59106;BME280;44891;50.204;8.132;2022-12-07T13:12:55;98053.47;;;4.67;88.60
59106;BME280;44891;50.204;8.132;2022-12-07T13:16:57;98054.69;;;4.71;90.70
59106;BME280;44891;50.204;8.132;2022-12-07T13:20:59;98054.50;;;4.53;92.59
59106;BME280;44891;50.204;8.132;2022-12-07T13:25:05;98067.16;;;4.36;94.51
59106;BME280;44891;50.204;8.132;2022-12-07T13:29:10;98067.53;;;4.20;95.29
59106;BME280;44891;50.204;8.132;2022-12-07T13:33:12;98066.34;;;4.09;95.88
59106;BME280;44891;50.204;8.132;2022-12-07T13:37:18;98064.72;;;3.95;95.86
59106;BME280;44891;50.204;8.132;2022-12-07T13:41:25;98056.34;;;4.26;95.14
59106;BME280;44891;50.204;8.132;2022-12-07T13:45:28;98055.56;;;4.19;94.27
59106;BME280;44891;50.204;8.132;2022-12-07T13:49:46;98063.13;;;4.07;95.29
59106;BME280;44891;50.204;8.132;2022-12-07T13:53:49;98055.75;;;4.04;96.28
59106;BME280;44891;50.204;8.132;2022-12-07T13:57:55;98053.53;;;4.01;96.22
59106;BME280;44891;50.204;8.132;2022-12-07T14:01:57;98057.56;;;4.03;98.47
59106;BME280;44891;50.204;8.132;2022-12-07T14:06:03;98057.94;;;4.00;98.05
59106;BME280;44891;50.204;8.132;2022-12-07T14:10:06;98052.97;;;4.05;97.81
59106;BME280;44891;50.204;8.132;2022-12-07T14:14:11;98045.53;;;4.09;97.28
59106;BME280;44891;50.204;8.132;2022-12-07T14:18:24;98044.56;;;4.23;97.22
59106;BME280;44891;50.204;8.132;2022-12-07T14:22:28;98056.94;;;4.34;99.87
59106;BME280;44891;50.204;8.132;2022-12-07T14:26:30;98044.53;;;4.43;99.19
59106;BME280;44891;50.204;8.132;2022-12-07T14:30:34;98042.91;;;4.35;99.63
59106;BME280;44891;50.204;8.132;2022-12-07T14:34:36;98043.75;;;4.29;100.00
59106;BME280;44891;50.204;8.132;2022-12-07T14:38:38;98040.56;;;4.07;98.73
59106;BME280;44891;50.204;8.132;2022-12-07T14:42:40;98038.56;;;4.16;98.09
59106;BME280;44891;50.204;8.132;2022-12-07T14:46:44;98043.78;;;4.09;96.06
59106;BME280;44891;50.204;8.132;2022-12-07T14:50:48;98040.97;;;3.98;97.45
59106;BME280;44891;50.204;8.132;2022-12-07T14:54:51;98038.38;;;3.85;97.70
59106;BME280;44891;50.204;8.132;2022-12-07T14:58:53;98033.97;;;3.85;97.30
59106;BME280;44891;50.204;8.132;2022-12-07T15:02:56;98037.38;;;3.86;96.22
59106;BME280;44891;50.204;8.132;2022-12-07T15:06:59;98036.34;;;3.87;96.67
59106;BME280;44891;50.204;8.132;2022-12-07T15:11:01;98029.16;;;3.89;96.70
59106;BME280;44891;50.204;8.132;2022-12-07T15:15:03;98023.16;;;3.75;95.24
59106;BME280;44891;50.204;8.132;2022-12-07T15:19:07;98019.56;;;3.82;95.08
59106;BME280;44891;50.204;8.132;2022-12-07T15:23:12;98025.38;;;3.71;95.69
59106;BME280;44891;50.204;8.132;2022-12-07T15:27:14;98029.75;;;3.64;96.11
59106;BME280;44891;50.204;8.132;2022-12-07T15:31:16;98019.19;;;3.72;95.75
59106;BME280;44891;50.204;8.132;2022-12-07T15:35:20;98019.16;;;3.66;94.92
59106;BME280;44891;50.204;8.132;2022-12-07T15:39:22;98014.34;;;3.63;94.89
59106;BME280;44891;50.204;8.132;2022-12-07T15:43:24;98010.56;;;3.59;95.43
59106;BME280;44891;50.204;8.132;2022-12-07T15:47:43;98009.53;;;3.40;96.59
59106;BME280;44891;50.204;8.132;2022-12-07T15:51:47;98012.94;;;3.40;98.28
59106;BME280;44891;50.204;8.132;2022-12-07T15:55:49;98001.75;;;3.40;97.60
59106;BME280;44891;50.204;8.132;2022-12-07T15:59:51;98004.16;;;3.41;98.26
59106;BME280;44891;50.204;8.132;2022-12-07T16:03:52;97998.34;;;3.33;97.04
59106;BME280;44891;50.204;8.132;2022-12-07T16:07:56;97989.13;;;3.23;98.11
59106;BME280;44891;50.204;8.132;2022-12-07T16:11:58;97983.75;;;3.25;96.55
59106;BME280;44891;50.204;8.132;2022-12-07T16:16:02;97976.75;;;3.19;98.34
59106;BME280;44891;50.204;8.132;2022-12-07T16:20:04;97985.16;;;3.21;97.26
59106;BME280;44891;50.204;8.132;2022-12-07T16:24:08;97987.53;;;3.22;98.25
59106;BME280;44891;50.204;8.132;2022-12-07T16:28:10;97984.94;;;3.22;96.43
59106;BME280;44891;50.204;8.132;2022-12-07T16:32:12;97980.69;;;3.02;98.02
59106;BME280;44891;50.204;8.132;2022-12-07T16:36:14;97980.31;;;3.05;97.32
59106;BME280;44891;50.204;8.132;2022-12-07T16:40:18;97981.44;;;2.89;99.75
59106;BME280;44891;50.204;8.132;2022-12-07T16:44:20;97982.25;;;2.89;99.48
59106;BME280;44891;50.204;8.132;2022-12-07T16:48:22;97975.91;;;2.92;98.96
59106;BME280;44891;50.204;8.132;2022-12-07T16:52:24;97968.28;;;2.90;98.64
59106;BME280;44891;50.204;8.132;2022-12-07T16:56:27;97972.50;;;2.91;98.60
59106;BME280;44891;50.204;8.132;2022-12-07T17:00:29;97971.91;;;3.03;97.79
59106;BME280;44891;50.204;8.132;2022-12-07T17:04:31;97969.53;;;3.01;99.28
59106;BME280;44891;50.204;8.132;2022-12-07T17:08:33;97963.34;;;3.02;98.70
59106;BME280;44891;50.204;8.132;2022-12-07T17:12:36;97964.34;;;3.01;97.29
59106;BME280;44891;50.204;8.132;2022-12-07T17:16:38;97966.97;;;3.14;96.85
59106;BME280;44891;50.204;8.132;2022-12-07T17:20:40;97960.78;;;3.22;96.88
59106;BME280;44891;50.204;8.132;2022-12-07T17:24:42;97960.78;;;3.28;96.73
59106;BME280;44891;50.204;8.132;2022-12-07T17:28:45;97970.97;;;3.30;97.01
59106;BME280;44891;50.204;8.132;2022-12-07T17:32:50;97962.22;;;3.24;98.83
59106;BME280;44891;50.204;8.132;2022-12-07T17:36:52;97970.00;;;3.24;99.72
59106;BME280;44891;50.204;8.132;2022-12-07T17:40:55;97962.41;;;3.30;98.10
59106;BME280;44891;50.204;8.132;2022-12-07T17:44:58;97962.00;;;3.33;97.18
59106;BME280;44891;50.204;8.132;2022-12-07T17:49:00;97960.00;;;3.21;100.00
59106;BME280;44891;50.204;8.132;2022-12-07T17:53:02;97945.63;;;3.12;100.00
59106;BME280;44891;50.204;8.132;2022-12-07T17:57:13;97943.22;;;3.17;100.00
59106;BME280;44891;50.204;8.132;2022-12-07T18:01:16;97939.44;;;3.26;98.88
59106;BME280;44891;50.204;8.132;2022-12-07T18:05:18;97930.06;;;3.25;97.59
59106;BME280;44891;50.204;8.132;2022-12-07T18:09:20;97936.25;;;3.24;97.80
59106;BME280;44891;50.204;8.132;2022-12-07T18:13:23;97928.84;;;3.28;97.52
59106;BME280;44891;50.204;8.132;2022-12-07T18:17:39;97933.03;;;3.29;98.57
59106;BME280;44891;50.204;8.132;2022-12-07T18:21:42;97932.25;;;3.28;98.85
59106;BME280;44891;50.204;8.132;2022-12-07T18:25:45;97930.25;;;3.17;99.75
59106;BME280;44891;50.204;8.132;2022-12-07T18:29:47;97930.44;;;3.22;99.96
59106;BME280;44891;50.204;8.132;2022-12-07T18:33:50;97926.44;;;3.13;98.77
59106;BME280;44891;50.204;8.132;2022-12-07T18:37:55;97927.63;;;2.97;100.00
59106;BME280;44891;50.204;8.132;2022-12-07T18:41:57;97922.47;;;3.04;100.00
59106;BME280;44891;50.204;8.132;2022-12-07T18:45:59;97926.81;;;3.04;100.00
59106;BME280;44891;50.204;8.132;2022-12-07T18:50:02;97925.66;;;3.06;100.00
59106;BME280;44891;50.204;8.132;2022-12-07T18:54:04;97919.66;;;3.06;100.00
59106;BME280;44891;50.204;8.132;2022-12-07T18:58:07;97903.47;;;2.97;100.00
59106;BME280;44891;50.204;8.132;2022-12-07T19:02:09;97907.88;;;3.03;100.00
59106;BME280;44891;50.204;8.132;2022-12-07T19:06:12;97913.03;;;2.90;100.00
59106;BME280;44891;50.204;8.132;2022-12-07T19:10:14;97908.25;;;2.87;100.00
59106;BME280;44891;50.204;8.132;2022-12-07T19:14:17;97906.88;;;2.97;100.00
59106;BME280;44891;50.204;8.132;2022-12-07T19:18:19;97906.28;;;3.02;100.00
59106;BME280;44891;50.204;8.132;2022-12-07T19:22:22;97904.88;;;3.06;100.00
59106;BME280;44891;50.204;8.132;2022-12-07T19:26:24;97901.72;;;3.04;100.00
59106;BME280;44891;50.204;8.132;2022-12-07T19:30:26;97901.72;;;3.04;100.00
59106;BME280;44891;50.204;8.132;2022-12-07T19:34:28;97892.50;;;3.08;100.00
59106;BME280;44891;50.204;8.132;2022-12-07T19:38:32;97888.53;;;3.06;100.00
59106;BME280;44891;50.204;8.132;2022-12-07T19:42:34;97887.31;;;3.02;100.00
59106;BME280;44891;50.204;8.132;2022-12-07T19:46:36;97890.13;;;3.13;100.00
59106;BME280;44891;50.204;8.132;2022-12-07T19:50:38;97884.94;;;3.13;100.00
59106;BME280;44891;50.204;8.132;2022-12-07T19:54:41;97885.53;;;3.15;100.00
59106;BME280;44891;50.204;8.132;2022-12-07T19:58:43;97883.56;;;3.24;100.00
59106;BME280;44891;50.204;8.132;2022-12-07T20:02:44;97875.78;;;3.24;100.00
59106;BME280;44891;50.204;8.132;2022-12-07T20:06:47;97878.97;;;3.26;100.00
59106;BME280;44891;50.204;8.132;2022-12-07T20:10:50;97874.56;;;3.20;100.00
59106;BME280;44891;50.204;8.132;2022-12-07T20:14:52;97872.78;;;3.27;100.00
59106;BME280;44891;50.204;8.132;2022-12-07T20:18:54;97866.78;;;3.26;100.00
59106;BME280;44891;50.204;8.132;2022-12-07T20:22:56;97866.59;;;3.28;100.00
59106;BME280;44891;50.204;8.132;2022-12-07T20:26:59;97863.41;;;3.26;100.00
59106;BME280;44891;50.204;8.132;2022-12-07T20:31:03;97859.78;;;3.34;100.00
59106;BME280;44891;50.204;8.132;2022-12-07T20:35:05;97860.59;;;3.41;99.71
59106;BME280;44891;50.204;8.132;2022-12-07T20:39:07;97849.00;;;3.43;99.21
59106;BME280;44891;50.204;8.132;2022-12-07T20:43:11;97850.00;;;3.49;98.89
59106;BME280;44891;50.204;8.132;2022-12-07T20:47:13;97845.81;;;3.48;98.42
59106;BME280;44891;50.204;8.132;2022-12-07T20:51:14;97841.03;;;3.38;99.12
59106;BME280;44891;50.204;8.132;2022-12-07T20:55:16;97839.03;;;3.47;99.58
59106;BME280;44891;50.204;8.132;2022-12-07T20:59:20;97842.81;;;3.51;99.78
59106;BME280;44891;50.204;8.132;2022-12-07T21:03:21;97839.81;;;3.41;99.00
59106;BME280;44891;50.204;8.132;2022-12-07T21:07:23;97826.47;;;3.37;99.45
59106;BME280;44891;50.204;8.132;2022-12-07T21:11:26;97828.22;;;3.43;99.20
59106;BME280;44891;50.204;8.132;2022-12-07T21:15:29;97824.25;;;3.41;99.80
59106;BME280;44891;50.204;8.132;2022-12-07T21:19:31;97826.47;;;3.44;99.66
59106;BME280;44891;50.204;8.132;2022-12-07T21:23:33;97827.63;;;3.48;99.29
59106;BME280;44891;50.204;8.132;2022-12-07T21:27:35;97826.25;;;3.45;99.95
59106;BME280;44891;50.204;8.132;2022-12-07T21:31:39;97823.44;;;3.47;99.56
59106;BME280;44891;50.204;8.132;2022-12-07T21:35:40;97820.84;;;3.47;99.04
59106;BME280;44891;50.204;8.132;2022-12-07T21:39:42;97816.25;;;3.49;98.61
59106;BME280;44891;50.204;8.132;2022-12-07T21:43:45;97820.06;;;3.46;98.95
59106;BME280;44891;50.204;8.132;2022-12-07T21:47:48;97816.69;;;3.33;99.47